| time (UTC) | temp C | wind direction | speed KPH | gust KPH | rain 1hr cm | rain 24hr cm | rain mn cm | humidity % | barometer mb |
| 20260510044543 | 23 | 108 | 24.1 | 29.0 | 0.00 | 0.00 | 0.00 | 67 | 1008.7 |
| 20260510043049 | 23 | 105 | 24.1 | 29.0 | 0.00 | 0.00 | 0.00 | 67 | 1008.6 |
| 20260510041545 | 23 | 99 | 24.1 | 29.0 | 0.00 | 0.00 | 0.00 | 68 | 1008.7 |
| 20260510040100 | 23 | 87 | 22.5 | 27.4 | 0.00 | 0.00 | 0.00 | 68 | 1008.6 |
| 20260510034546 | 23 | 92 | 17.7 | 25.7 | 0.00 | 0.00 | 0.00 | 66 | 1008.2 |
| 20260510033054 | 24 | 98 | 19.3 | 25.7 | 0.00 | 0.00 | 0.00 | 66 | 1008.0 |
| 20260510031547 | 24 | 76 | 22.5 | 27.4 | 0.00 | 0.00 | 0.00 | 65 | 1007.7 |
| 20260510030048 | 25 | 91 | 19.3 | 24.1 | 0.00 | 0.00 | 0.00 | 64 | 1007.3 |
| 20260510024545 | 25 | 90 | 17.7 | 27.4 | 0.00 | 0.00 | 0.00 | 63 | 1006.9 |
| 20260510023045 | 25 | 107 | 19.3 | 27.4 | 0.00 | 0.00 | 0.00 | 62 | 1006.6 |
| 20260510021637 | 25 | 110 | 19.3 | 25.7 | 0.00 | 0.00 | 0.00 | 61 | 1006.5 |
| 20260510020051 | 26 | 109 | 19.3 | 25.7 | 0.00 | 0.00 | 0.00 | 61 | 1005.9 |
| 20260510014555 | 26 | 107 | 17.7 | 27.4 | 0.00 | 0.00 | 0.00 | 60 | 1005.6 |
| 20260510013057 | 26 | 113 | 24.1 | 29.0 | 0.00 | 0.00 | 0.00 | 59 | 1005.3 |
| 20260510011545 | 27 | 103 | 24.1 | 29.0 | 0.00 | 0.00 | 0.00 | 58 | 1005.4 |
| 20260510010054 | 27 | 105 | 24.1 | 29.0 | 0.00 | 0.00 | 0.00 | 55 | 1005.6 |
| 20260510004548 | 28 | 113 | 22.5 | 30.6 | 0.00 | 0.00 | 0.00 | 51 | 1005.7 |
| 20260510003049 | 28 | 110 | 22.5 | 30.6 | 0.00 | 0.00 | 0.00 | 50 | 1005.4 |
| 20260510001545 | 28 | 113 | 25.7 | 30.6 | 0.00 | 0.00 | 0.00 | 50 | 1005.2 |
| 20260510000043 | 29 | 128 | 25.7 | 30.6 | 0.00 | 0.00 | 0.00 | 48 | 1005.3 |
| 20260509234543 | 29 | 127 | 27.4 | 30.6 | 0.00 | 0.00 | 0.00 | 47 | 1005.4 |
| 20260509233048 | 30 | 120 | 27.4 | 30.6 | 0.00 | 0.00 | 0.00 | 46 | 1005.7 |
| 20260509231552 | 30 | 116 | 25.7 | 29.0 | 0.00 | 0.00 | 0.00 | 45 | 1005.7 |
| 20260509230052 | 29 | 119 | 22.5 | 27.4 | 0.00 | 0.00 | 0.00 | 46 | 1006.4 |
| 20260509224544 | 30 | 100 | 24.1 | 29.0 | 0.00 | 0.00 | 0.00 | 46 | 1006.2 |
| 20260509223044 | 31 | 128 | 22.5 | 30.6 | 0.00 | 0.00 | 0.00 | 42 | 1006.2 |
| 20260509221549 | 32 | 113 | 25.7 | 29.0 | 0.00 | 0.00 | 0.00 | 41 | 1006.6 |
| 20260509220051 | 31 | 124 | 17.7 | 27.4 | 0.00 | 0.00 | 0.00 | 41 | 1006.7 |
| 20260509214546 | 32 | 112 | 22.5 | 29.0 | 0.00 | 0.00 | 0.00 | 40 | 1006.8 |
| 20260509213104 | 32 | 119 | 16.1 | 27.4 | 0.00 | 0.00 | 0.00 | 42 | 1006.9 |
| 20260509211549 | 32 | 148 | 22.5 | 29.0 | 0.00 | 0.00 | 0.00 | 41 | 1007.3 |
| 20260509210050 | 31 | 121 | 14.5 | 27.4 | 0.00 | 0.00 | 0.00 | 43 | 1007.6 |
| 20260509204544 | 31 | 127 | 16.1 | 29.0 | 0.00 | 0.00 | 0.00 | 43 | 1008.1 |
| 20260509203043 | 31 | 133 | 17.7 | 27.4 | 0.00 | 0.00 | 0.00 | 43 | 1008.6 |
| 20260509201544 | 31 | 182 | 19.3 | 27.4 | 0.00 | 0.00 | 0.00 | 43 | 1008.8 |
| 20260509200053 | 31 | 163 | 19.3 | 27.4 | 0.00 | 0.00 | 0.00 | 43 | 1009.0 |
| 20260509194555 | 31 | 125 | 14.5 | 25.7 | 0.00 | 0.00 | 0.00 | 44 | 1009.2 |
| 20260509193046 | 31 | 130 | 9.7 | 25.7 | 0.00 | 0.00 | 0.00 | 44 | 1009.4 |
| 20260509191547 | 31 | 128 | 11.3 | 25.7 | 0.00 | 0.00 | 0.00 | 44 | 1009.6 |
| 20260509190046 | 31 | 186 | 9.7 | 22.5 | 0.00 | 0.00 | 0.00 | 44 | 1009.8 |
| 20260509184557 | 30 | 0 | 6.4 | 16.1 | 0.00 | 0.00 | 0.00 | 44 | 1010.1 |
| 20260509183053 | 30 | 0 | 8.0 | 22.5 | 0.00 | 0.00 | 0.00 | 46 | 1010.4 |
| 20260509181554 | 30 | 0 | 0.0 | 16.1 | 0.00 | 0.00 | 0.00 | 46 | 1010.6 |
| 20260509180055 | 29 | 157 | 6.4 | 17.7 | 0.00 | 0.00 | 0.00 | 49 | 1010.5 |
| 20260509174551 | 28 | 93 | 11.3 | 22.5 | 0.00 | 0.00 | 0.00 | 52 | 1010.8 |
| 20260509173102 | 28 | 0 | 9.7 | 20.9 | 0.00 | 0.00 | 0.00 | 53 | 1011.3 |
| 20260509171547 | 28 | 138 | 11.3 | 19.3 | 0.00 | 0.00 | 0.00 | 54 | 1011.7 |
| 20260509170047 | 27 | 0 | 4.8 | 22.5 | 0.00 | 0.00 | 0.00 | 54 | 1012.1 |
| 20260509164550 | 27 | 115 | 9.7 | 19.3 | 0.00 | 0.00 | 0.00 | 56 | 1012.4 |
| 20260509163053 | 26 | 167 | 1.6 | 9.7 | 0.00 | 0.00 | 0.00 | 57 | 1012.5 |
| 20260509161557 | 26 | 76 | 4.8 | 17.7 | 0.00 | 0.00 | 0.00 | 61 | 1012.5 |
| 20260509160044 | 25 | 130 | 4.8 | 12.9 | 0.00 | 0.00 | 0.00 | 64 | 1012.7 |
| 20260509154552 | 24 | 84 | 6.4 | 14.5 | 0.00 | 0.00 | 0.00 | 66 | 1012.7 |
| 20260509153055 | 23 | 40 | 3.2 | 12.9 | 0.00 | 0.00 | 0.00 | 67 | 1012.7 |
| 20260509151543 | 23 | 22 | 4.8 | 14.5 | 0.00 | 0.00 | 0.00 | 67 | 1012.6 |
| 20260509150049 | 22 | 0 | 1.6 | 12.9 | 0.00 | 0.00 | 0.00 | 70 | 1012.7 |
| 20260509144550 | 22 | 106 | 6.4 | 14.5 | 0.00 | 0.00 | 0.00 | 74 | 1012.9 |
| 20260509143048 | 21 | 113 | 6.4 | 12.9 | 0.00 | 0.00 | 0.00 | 77 | 1013.0 |
| 20260509141545 | 20 | 82 | 8.0 | 14.5 | 0.00 | 0.00 | 0.00 | 82 | 1012.6 |
| 20260509140055 | 18 | 82 | 8.0 | 12.9 | 0.00 | 0.00 | 0.00 | 84 | 1012.8 |
| 20260509134546 | 18 | 74 | 4.8 | 8.0 | 0.00 | 0.00 | 0.00 | 91 | 1012.8 |
| 20260509133051 | 17 | 0 | 0.0 | 0.0 | 0.00 | 0.00 | 0.00 | 93 | 1012.7 |
| 20260509131545 | 16 | 0 | 0.0 | 0.0 | 0.00 | 0.00 | 0.00 | 94 | 1012.5 |
| 20260509130044 | 16 | 0 | 0.0 | 0.0 | 0.00 | 0.00 | 0.00 | 94 | 1012.5 |
| 20260509124552 | 15 | 0 | 0.0 | 0.0 | 0.00 | 0.00 | 0.00 | 94 | 1012.3 |
| 20260509123050 | 14 | 0 | 0.0 | 0.0 | 0.00 | 0.00 | 0.00 | 94 | 1012.1 |
| 20260509121549 | 13 | 0 | 0.0 | 0.0 | 0.00 | 0.00 | 0.00 | 94 | 1011.9 |
| 20260509120047 | 12 | 0 | 0.0 | 0.0 | 0.00 | 0.00 | 0.00 | 93 | 1011.8 |
| 20260509114543 | 13 | 0 | 0.0 | 0.0 | 0.00 | 0.00 | 0.00 | 92 | 1011.6 |
| 20260509113051 | 13 | 0 | 0.0 | 1.6 | 0.00 | 0.00 | 0.00 | 93 | 1011.3 |
| 20260509111553 | 13 | 0 | 0.0 | 1.6 | 0.00 | 0.00 | 0.00 | 93 | 1011.1 |
| 20260509110050 | 13 | 0 | 0.0 | 0.0 | 0.00 | 0.00 | 0.00 | 93 | 1010.9 |
| 20260509104546 | 14 | 0 | 0.0 | 1.6 | 0.00 | 0.00 | 0.00 | 92 | 1010.9 |
| 20260509103052 | 14 | 0 | 4.8 | 9.7 | 0.00 | 0.00 | 0.00 | 93 | 1010.6 |
| 20260509101550 | 14 | 350 | 4.8 | 12.9 | 0.00 | 0.00 | 0.00 | 92 | 1010.4 |
| 20260509100045 | 14 | 355 | 8.0 | 14.5 | 0.00 | 0.00 | 0.00 | 92 | 1010.1 |
| 20260509094555 | 14 | 9 | 8.0 | 12.9 | 0.00 | 0.00 | 0.00 | 92 | 1010.0 |
| 20260509093044 | 15 | 360 | 9.7 | 14.5 | 0.00 | 0.00 | 0.00 | 92 | 1010.0 |
| 20260509091554 | 15 | 5 | 8.0 | 14.5 | 0.00 | 0.00 | 0.00 | 91 | 1010.3 |
| 20260509090053 | 15 | 0 | 0.0 | 1.6 | 0.00 | 0.00 | 0.00 | 90 | 1010.3 |
| 20260509084558 | 15 | 0 | 0.0 | 0.0 | 0.00 | 0.00 | 0.00 | 88 | 1010.4 |
| 20260509083047 | 15 | 0 | 0.0 | 1.6 | 0.00 | 0.00 | 0.00 | 88 | 1010.5 |
| 20260509081545 | 15 | 0 | 0.0 | 1.6 | 0.00 | 0.00 | 0.00 | 86 | 1010.5 |
| 20260509080048 | 16 | 0 | 0.0 | 0.0 | 0.00 | 0.00 | 0.00 | 85 | 1010.5 |
| 20260509074608 | 16 | 0 | 0.0 | 0.0 | 0.00 | 0.00 | 0.00 | 85 | 1010.8 |
| 20260509073103 | 16 | 0 | 0.0 | 0.0 | 0.00 | 0.00 | 0.00 | 84 | 1011.0 |
| 20260509071555 | 16 | 161 | 6.4 | 11.3 | 0.00 | 0.00 | 0.00 | 84 | 1011.0 |
| 20260509070048 | 17 | 148 | 6.4 | 14.5 | 0.00 | 0.00 | 0.00 | 83 | 1011.0 |
| 20260509064543 | 17 | 0 | 0.0 | 8.0 | 0.00 | 0.00 | 0.00 | 82 | 1011.1 |
| 20260509063059 | 17 | 155 | 4.8 | 14.5 | 0.00 | 0.00 | 0.00 | 82 | 1010.9 |
| 20260509061540 | 18 | 150 | 6.4 | 14.5 | 0.00 | 0.00 | 0.00 | 83 | 1010.9 |
| 20260509060104 | 18 | 168 | 6.4 | 9.7 | 0.00 | 0.00 | 0.00 | 83 | 1011.1 |
| 20260509054545 | 18 | 161 | 4.8 | 9.7 | 0.00 | 0.00 | 0.00 | 84 | 1011.2 |
| 20260509053054 | 18 | 0 | 0.0 | 0.0 | 0.00 | 0.00 | 0.00 | 84 | 1011.3 |
| 20260509051547 | 18 | 0 | 0.0 | 14.5 | 0.00 | 0.00 | 0.00 | 85 | 1010.9 |
| 20260509050043 | 18 | 172 | 9.7 | 22.5 | 0.00 | 0.00 | 0.00 | 84 | 1011.3 |